createdAt,value
2018-12-13T00:01:22.771Z,4.80
2018-12-13T00:03:51.092Z,5.22
2018-12-13T00:06:19.406Z,4.75
2018-12-13T00:08:47.742Z,4.28
2018-12-13T00:11:16.050Z,4.47
2018-12-13T00:13:44.511Z,4.60
2018-12-13T00:16:12.833Z,4.40
2018-12-13T00:18:41.262Z,4.47
2018-12-13T00:21:09.813Z,4.55
2018-12-13T00:23:38.261Z,4.03
2018-12-13T00:26:06.661Z,4.47
2018-12-13T00:28:35.027Z,4.55
2018-12-13T00:31:03.317Z,4.45
2018-12-13T00:33:31.629Z,3.80
2018-12-13T00:36:00.009Z,3.60
2018-12-13T00:38:28.338Z,4.55
2018-12-13T00:40:56.766Z,3.92
2018-12-13T00:43:25.426Z,4.50
2018-12-13T00:45:53.837Z,4.12
2018-12-13T00:48:22.152Z,4.00
2018-12-13T00:50:50.559Z,3.70
2018-12-13T00:53:19.259Z,3.58
2018-12-13T00:55:47.585Z,3.55
2018-12-13T00:58:15.943Z,3.67
2018-12-13T01:00:44.245Z,3.70
2018-12-13T01:03:12.705Z,3.85
2018-12-13T01:05:41.238Z,3.90
2018-12-13T01:08:09.625Z,4.20
2018-12-13T01:10:38.037Z,3.98
2018-12-13T01:13:06.392Z,3.80
2018-12-13T01:15:34.737Z,4.12
2018-12-13T01:18:03.138Z,3.90
2018-12-13T01:20:31.459Z,3.52
2018-12-13T01:22:59.867Z,3.60
2018-12-13T01:25:28.254Z,3.55
2018-12-13T01:27:56.796Z,4.28
2018-12-13T01:30:25.209Z,4.10
2018-12-13T01:32:53.496Z,4.25
2018-12-13T01:35:21.828Z,4.92
2018-12-13T01:37:50.153Z,4.10
2018-12-13T01:40:18.459Z,4.10
2018-12-13T01:42:46.774Z,4.17
2018-12-13T01:45:15.058Z,4.08
2018-12-13T01:47:43.383Z,3.87
2018-12-13T01:50:11.821Z,3.80
2018-12-13T01:52:40.114Z,3.95
2018-12-13T01:55:08.401Z,3.95
2018-12-13T01:57:36.744Z,4.37
2018-12-13T02:00:05.965Z,4.95
2018-12-13T02:02:34.280Z,4.70
2018-12-13T02:05:02.621Z,4.15
2018-12-13T02:07:30.949Z,4.20
2018-12-13T02:09:59.263Z,4.30
2018-12-13T02:12:27.705Z,4.45
2018-12-13T02:14:56.003Z,4.08
2018-12-13T02:17:24.306Z,4.42
2018-12-13T02:19:52.669Z,4.20
2018-12-13T02:22:20.982Z,4.35
2018-12-13T02:24:49.291Z,3.75
2018-12-13T02:27:17.619Z,4.50
2018-12-13T02:29:45.917Z,4.70
2018-12-13T02:32:14.209Z,4.70
2018-12-13T02:34:42.816Z,5.15
2018-12-13T02:37:15.712Z,4.62
2018-12-13T02:39:44.046Z,4.50
2018-12-13T02:42:12.493Z,4.53
2018-12-13T02:44:42.728Z,4.05
2018-12-13T02:47:11.077Z,4.05
2018-12-13T02:49:39.542Z,3.92
2018-12-13T02:52:07.885Z,4.20
2018-12-13T02:54:36.385Z,3.45
2018-12-13T02:57:04.797Z,4.30
2018-12-13T02:59:33.182Z,3.45
2018-12-13T03:02:01.508Z,3.45
2018-12-13T03:04:29.887Z,3.00
2018-12-13T03:06:58.181Z,3.15
2018-12-13T03:09:26.595Z,2.95
2018-12-13T03:11:54.952Z,2.90
2018-12-13T03:14:23.293Z,3.33
2018-12-13T03:16:51.884Z,3.20
2018-12-13T03:19:20.235Z,3.30
2018-12-13T03:21:48.598Z,2.70
2018-12-13T03:24:17.049Z,3.17
2018-12-13T03:26:45.364Z,3.10
2018-12-13T03:29:13.687Z,2.90
2018-12-13T03:31:42.031Z,2.40
2018-12-13T03:34:10.408Z,2.98
2018-12-13T03:36:38.778Z,2.83
2018-12-13T03:39:08.000Z,3.30
2018-12-13T03:41:36.529Z,2.98
2018-12-13T03:44:04.864Z,3.45
2018-12-13T03:46:33.187Z,3.05
2018-12-13T03:49:01.550Z,3.00
2018-12-13T03:51:29.872Z,2.60
2018-12-13T03:53:58.246Z,2.37
2018-12-13T03:56:26.594Z,2.70
2018-12-13T03:58:54.939Z,2.83
2018-12-13T04:01:23.497Z,2.25
2018-12-13T04:03:51.860Z,2.70
2018-12-13T04:06:20.155Z,2.70
2018-12-13T04:08:48.536Z,2.52
2018-12-13T04:11:16.869Z,2.15
2018-12-13T04:13:45.221Z,2.30
2018-12-13T04:16:13.774Z,2.00
2018-12-13T04:18:42.103Z,2.17
2018-12-13T04:21:10.416Z,2.08
2018-12-13T04:23:38.973Z,2.00
2018-12-13T04:26:07.286Z,2.08
2018-12-13T04:28:35.640Z,2.00
2018-12-13T04:31:03.998Z,2.22
2018-12-13T04:33:32.281Z,1.87
2018-12-13T04:36:00.576Z,2.35
2018-12-13T04:38:28.911Z,2.22
2018-12-13T04:40:57.244Z,1.80
2018-12-13T04:43:25.556Z,2.25
2018-12-13T04:45:54.206Z,2.00
2018-12-13T04:48:22.518Z,1.75
2018-12-13T04:50:50.806Z,2.15
2018-12-13T04:53:19.175Z,2.47
2018-12-13T04:55:47.472Z,2.47
2018-12-13T04:58:15.888Z,2.70
2018-12-13T05:00:44.250Z,1.82
2018-12-13T05:03:12.550Z,1.75
2018-12-13T05:05:40.852Z,2.15
2018-12-13T05:08:09.334Z,1.80
2018-12-13T05:10:51.016Z,2.08
2018-12-13T05:13:19.620Z,1.55
2018-12-13T05:15:47.971Z,1.92
2018-12-13T05:18:16.310Z,1.77
2018-12-13T05:20:44.651Z,1.62
2018-12-13T05:23:13.060Z,2.10
2018-12-13T05:25:41.338Z,2.20
2018-12-13T05:28:10.028Z,2.52
2018-12-13T05:30:38.368Z,2.00
2018-12-13T05:33:06.713Z,2.40
2018-12-13T05:35:35.054Z,1.70
2018-12-13T05:38:03.363Z,2.15
2018-12-13T05:40:31.638Z,2.20
2018-12-13T05:42:59.973Z,2.30
2018-12-13T05:45:28.264Z,1.90
2018-12-13T05:47:56.565Z,2.10
2018-12-13T05:50:25.105Z,1.95
2018-12-13T05:52:53.416Z,2.40
2018-12-13T05:55:21.687Z,1.82
2018-12-13T05:57:50.030Z,2.80
2018-12-13T06:00:18.464Z,1.90
2018-12-13T06:02:46.803Z,2.50
2018-12-13T06:05:15.109Z,2.55
2018-12-13T06:07:43.438Z,2.50
2018-12-13T06:10:11.759Z,2.30
2018-12-13T06:12:40.250Z,2.75
2018-12-13T06:15:08.609Z,2.47
2018-12-13T06:17:36.924Z,2.65
2018-12-13T06:20:05.428Z,2.00
2018-12-13T06:22:33.782Z,2.50
2018-12-13T06:25:02.108Z,2.55
2018-12-13T06:27:30.438Z,2.50
2018-12-13T06:29:59.249Z,2.62
2018-12-13T06:32:27.648Z,2.22
2018-12-13T06:34:56.111Z,3.00
2018-12-13T06:37:24.413Z,2.70
2018-12-13T06:39:53.640Z,3.62
2018-12-13T06:42:21.945Z,3.00
2018-12-13T06:44:50.274Z,2.47
2018-12-13T06:47:18.601Z,2.95
2018-12-13T06:49:46.907Z,3.00
2018-12-13T06:52:15.210Z,2.90
2018-12-13T06:54:43.533Z,3.10
2018-12-13T06:57:12.077Z,2.80
2018-12-13T06:59:40.478Z,3.12
2018-12-13T07:02:08.873Z,2.83
2018-12-13T07:04:37.193Z,3.37
2018-12-13T07:07:05.508Z,3.77
2018-12-13T07:09:33.819Z,3.37
2018-12-13T07:12:02.174Z,3.50
2018-12-13T07:14:30.535Z,4.03
2018-12-13T07:16:58.919Z,3.70
2018-12-13T07:19:27.418Z,4.05
2018-12-13T07:21:55.720Z,3.83
2018-12-13T07:24:24.018Z,3.58
2018-12-13T07:26:52.387Z,3.52
2018-12-13T07:29:20.676Z,3.62
2018-12-13T07:31:49.039Z,3.30
2018-12-13T07:34:17.362Z,3.52
2018-12-13T07:36:45.697Z,3.90
2018-12-13T07:39:13.982Z,3.90
2018-12-13T07:41:42.576Z,2.83
2018-12-13T07:44:10.886Z,4.40
2018-12-13T07:46:39.184Z,4.03
2018-12-13T07:49:07.522Z,3.98
2018-12-13T07:51:35.853Z,4.50
2018-12-13T07:54:04.247Z,4.78
2018-12-13T07:56:32.584Z,3.72
2018-12-13T07:59:01.064Z,5.25
2018-12-13T08:01:29.328Z,5.03
2018-12-13T08:03:57.814Z,4.70
2018-12-13T08:06:26.165Z,4.30
2018-12-13T08:08:54.465Z,4.90
2018-12-13T08:11:22.895Z,5.15
2018-12-13T08:13:51.237Z,5.05
2018-12-13T08:16:19.607Z,4.90
2018-12-13T08:18:47.933Z,4.37
2018-12-13T08:21:16.240Z,4.30
2018-12-13T08:23:44.603Z,3.80
2018-12-13T08:26:13.053Z,3.43
2018-12-13T08:28:41.369Z,4.40
2018-12-13T08:31:09.714Z,3.90
2018-12-13T08:33:38.130Z,4.23
2018-12-13T08:36:06.509Z,4.20
2018-12-13T08:38:34.928Z,4.33
2018-12-13T08:41:03.319Z,4.67
2018-12-13T08:43:31.626Z,4.93
2018-12-13T08:45:59.959Z,5.47
2018-12-13T08:48:28.581Z,4.93
2018-12-13T08:50:56.951Z,4.47
2018-12-13T08:53:25.344Z,4.57
2018-12-13T08:55:54.216Z,4.80
2018-12-13T08:58:22.590Z,4.00
2018-12-13T09:00:51.029Z,4.50
2018-12-13T09:03:19.390Z,4.27
2018-12-13T09:05:48.732Z,3.93
2018-12-13T09:08:17.046Z,4.57
2018-12-13T09:10:45.432Z,4.20
2018-12-13T09:13:13.768Z,3.10
2018-12-13T09:15:42.094Z,3.60
2018-12-13T09:18:10.490Z,3.83
2018-12-13T09:20:38.819Z,3.80
2018-12-13T09:23:07.185Z,3.83
2018-12-13T09:25:35.495Z,3.60
2018-12-13T09:28:03.872Z,3.57
2018-12-13T09:30:32.215Z,3.07
2018-12-13T09:33:00.769Z,3.30
2018-12-13T09:35:29.112Z,3.20
2018-12-13T09:37:57.595Z,4.30
2018-12-13T09:40:25.946Z,3.23
2018-12-13T09:42:54.260Z,3.90
2018-12-13T09:45:22.563Z,2.70
2018-12-13T09:47:50.896Z,2.60
2018-12-13T09:50:19.185Z,2.37
2018-12-13T09:52:47.545Z,2.83
2018-12-13T09:55:16.077Z,2.50
2018-12-13T09:57:44.405Z,2.70
2018-12-13T10:00:12.751Z,3.30
2018-12-13T10:02:41.287Z,2.97
2018-12-13T10:05:09.622Z,3.17
2018-12-13T10:07:37.212Z,2.70
2018-12-13T10:10:05.836Z,3.10
2018-12-13T10:12:34.152Z,2.93
2018-12-13T10:15:02.478Z,3.63
2018-12-13T10:17:30.974Z,3.27
2018-12-13T10:19:59.263Z,3.17
2018-12-13T10:22:28.689Z,2.90
2018-12-13T10:24:57.191Z,3.53
2018-12-13T10:27:26.267Z,2.37
2018-12-13T10:29:54.617Z,3.40
2018-12-13T10:32:22.945Z,3.37
2018-12-13T10:34:51.238Z,3.10
2018-12-13T10:37:19.565Z,2.87
2018-12-13T10:39:48.069Z,3.23
2018-12-13T10:42:16.364Z,2.77
2018-12-13T10:44:44.673Z,2.77
2018-12-13T10:47:13.072Z,3.07
2018-12-13T10:49:41.338Z,3.40
2018-12-13T10:52:09.669Z,2.93
2018-12-13T10:54:38.014Z,2.73
2018-12-13T10:57:06.344Z,2.90
2018-12-13T10:59:34.755Z,2.93
2018-12-13T11:02:05.181Z,3.60
2018-12-13T11:04:33.478Z,3.70
2018-12-13T11:07:01.797Z,3.92
2018-12-13T11:09:30.139Z,4.20
2018-12-13T11:11:58.421Z,3.20
2018-12-13T11:14:26.779Z,6.30
2018-12-13T11:16:55.137Z,3.58
2018-12-13T11:19:23.425Z,3.55
2018-12-13T11:21:51.711Z,3.80
2018-12-13T11:24:20.086Z,8.10
2018-12-13T11:26:48.392Z,4.05
2018-12-13T11:29:34.337Z,3.87
2018-12-13T11:32:02.625Z,4.40
2018-12-13T11:34:30.981Z,4.53
2018-12-13T11:36:59.426Z,4.80
2018-12-13T11:39:27.742Z,4.27
2018-12-13T11:41:56.038Z,3.80
2018-12-13T11:44:26.297Z,4.50
2018-12-13T11:46:54.579Z,5.60
2018-12-13T11:49:22.895Z,5.05
2018-12-13T11:51:51.347Z,4.30
2018-12-13T11:54:25.442Z,4.30
2018-12-13T11:56:53.755Z,4.12
2018-12-13T11:59:22.042Z,4.00
2018-12-13T12:01:50.316Z,3.87
2018-12-13T12:04:18.961Z,4.30
2018-12-13T12:06:47.382Z,4.58
2018-12-13T12:09:15.680Z,4.47
2018-12-13T12:11:43.989Z,5.87
2018-12-13T12:14:12.326Z,3.30
2018-12-13T12:16:40.629Z,3.45
2018-12-13T12:19:08.970Z,5.08
2018-12-13T12:21:37.259Z,4.25
2018-12-13T12:24:05.570Z,3.45
2018-12-13T12:26:34.105Z,3.35
2018-12-13T12:29:02.466Z,5.37
2018-12-13T12:31:30.839Z,4.57
2018-12-13T12:33:59.181Z,3.75
2018-12-13T12:36:27.533Z,4.50
2018-12-13T12:38:55.841Z,4.10
2018-12-13T12:41:24.183Z,4.20
2018-12-13T12:43:52.488Z,4.30
2018-12-13T12:46:21.293Z,3.87
2018-12-13T12:48:49.910Z,4.30
2018-12-13T12:51:18.224Z,3.70
2018-12-13T12:53:46.524Z,3.90
2018-12-13T12:56:14.878Z,4.00
2018-12-13T12:58:43.209Z,3.83
2018-12-13T13:01:11.525Z,3.70
2018-12-13T13:03:39.861Z,4.10
2018-12-13T13:06:08.437Z,4.12
2018-12-13T13:08:36.775Z,4.80
2018-12-13T13:11:06.072Z,4.90
2018-12-13T13:13:34.400Z,4.60
2018-12-13T13:16:02.716Z,3.30
2018-12-13T13:18:32.207Z,5.08
2018-12-13T13:21:00.632Z,4.00
2018-12-13T13:23:28.956Z,4.85
2018-12-13T13:25:57.314Z,4.53
2018-12-13T13:28:25.638Z,4.20
2018-12-13T13:30:53.969Z,4.00
2018-12-13T13:33:22.550Z,3.85
2018-12-13T13:35:50.863Z,4.55
2018-12-13T13:38:19.303Z,3.60
2018-12-13T13:40:47.745Z,3.50
2018-12-13T13:43:16.122Z,4.12
2018-12-13T13:45:44.442Z,4.08
2018-12-13T13:48:12.778Z,4.53
2018-12-13T13:50:41.086Z,4.37
2018-12-13T13:53:09.471Z,3.98
2018-12-13T13:55:37.861Z,3.90
2018-12-13T13:58:06.208Z,4.00
2018-12-13T14:00:34.541Z,4.28
2018-12-13T14:03:02.920Z,4.50
2018-12-13T14:05:31.285Z,5.50
2018-12-13T14:07:59.941Z,3.95
2018-12-13T14:10:28.417Z,4.45
2018-12-13T14:12:56.740Z,4.20
2018-12-13T14:15:25.053Z,4.15
2018-12-13T14:17:53.586Z,4.40
2018-12-13T14:20:21.900Z,4.30
2018-12-13T14:22:50.453Z,3.75
2018-12-13T14:25:18.810Z,4.15
2018-12-13T14:27:47.142Z,3.40
2018-12-13T14:30:15.447Z,4.30
2018-12-13T14:32:43.819Z,3.67
2018-12-13T14:35:12.181Z,4.70
2018-12-13T14:37:40.511Z,4.12
2018-12-13T14:40:09.086Z,4.15
2018-12-13T14:42:37.429Z,3.62
2018-12-13T14:45:06.116Z,4.55
2018-12-13T14:47:34.434Z,3.77
2018-12-13T14:50:02.790Z,4.20
2018-12-13T14:52:31.118Z,3.87
2018-12-13T14:54:59.449Z,4.28
2018-12-13T14:57:27.779Z,4.42
2018-12-13T14:59:56.124Z,3.92
2018-12-13T15:02:24.651Z,3.47
2018-12-13T15:04:53.376Z,3.95
2018-12-13T15:07:21.690Z,4.00
2018-12-13T15:09:51.088Z,4.67
2018-12-13T15:12:19.684Z,3.83
2018-12-13T15:14:48.040Z,5.45
2018-12-13T15:17:16.438Z,4.08
2018-12-13T15:19:44.753Z,4.60
2018-12-13T15:22:13.067Z,4.78
2018-12-13T15:24:41.465Z,4.15
2018-12-13T15:27:09.791Z,4.87
2018-12-13T15:29:38.093Z,4.75
2018-12-13T15:32:06.467Z,4.90
2018-12-13T15:34:34.754Z,4.83
2018-12-13T15:37:03.125Z,4.60
2018-12-13T15:39:31.463Z,4.95
2018-12-13T15:41:59.821Z,4.53
2018-12-13T15:44:28.191Z,5.33
2018-12-13T15:46:56.709Z,4.40
2018-12-13T15:49:25.475Z,4.90
2018-12-13T15:51:53.790Z,5.15
2018-12-13T15:54:22.123Z,5.00
2018-12-13T15:56:50.443Z,5.45
2018-12-13T15:59:18.751Z,5.58
2018-12-13T16:01:47.101Z,6.47
2018-12-13T16:04:15.424Z,5.25
2018-12-13T16:06:43.767Z,4.90
2018-12-13T16:09:12.176Z,6.33
2018-12-13T16:11:40.544Z,6.00
2018-12-13T16:14:08.850Z,5.50
2018-12-13T16:16:37.227Z,6.50
2018-12-13T16:19:05.553Z,5.80
2018-12-13T16:21:33.939Z,6.05
2018-12-13T16:24:02.295Z,5.97
2018-12-13T16:26:30.582Z,5.95
2018-12-13T16:28:58.932Z,6.30
2018-12-13T16:31:27.694Z,6.37
2018-12-13T16:33:56.017Z,7.50
2018-12-13T16:36:24.399Z,7.08
2018-12-13T16:38:52.824Z,8.05
2018-12-13T16:41:21.205Z,7.60
2018-12-13T16:43:49.509Z,6.83
2018-12-13T16:46:17.858Z,6.53
2018-12-13T16:48:46.240Z,7.55
2018-12-13T16:51:14.570Z,7.42
2018-12-13T16:53:43.077Z,7.67
2018-12-13T16:56:11.506Z,8.40
2018-12-13T16:58:39.891Z,7.90
2018-12-13T17:01:08.265Z,8.25
2018-12-13T17:03:41.371Z,8.35
2018-12-13T17:06:09.812Z,8.55
2018-12-13T17:08:38.157Z,8.98
2018-12-13T17:11:06.596Z,8.58
2018-12-13T17:13:35.072Z,8.75
2018-12-13T17:16:03.370Z,8.60
2018-12-13T17:18:31.830Z,7.83
2018-12-13T17:21:00.311Z,8.80
2018-12-13T17:23:28.705Z,9.35
2018-12-13T17:25:57.065Z,10.70
2018-12-13T17:28:25.499Z,9.75
2018-12-13T17:30:53.828Z,8.88
2018-12-13T17:33:22.221Z,9.45
2018-12-13T17:35:50.869Z,8.90
2018-12-13T17:38:19.197Z,9.65
2018-12-13T17:40:47.539Z,9.50
2018-12-13T17:43:16.028Z,9.60
2018-12-13T17:45:44.344Z,9.68
2018-12-13T17:48:12.700Z,9.03
2018-12-13T17:50:41.117Z,10.00
2018-12-13T17:53:09.482Z,10.82
2018-12-13T17:55:37.884Z,10.80
2018-12-13T17:58:06.448Z,9.50
2018-12-13T18:00:34.787Z,9.20
2018-12-13T18:03:03.137Z,9.95
2018-12-13T18:05:31.552Z,10.25
2018-12-13T18:07:59.924Z,9.78
2018-12-13T18:10:29.541Z,10.82
2018-12-13T18:12:58.004Z,10.10
2018-12-13T18:15:26.320Z,9.20
2018-12-13T18:17:54.682Z,11.60
2018-12-13T18:20:23.139Z,11.35
2018-12-13T18:22:51.607Z,11.35
2018-12-13T18:25:20.043Z,11.97
2018-12-13T18:27:48.485Z,11.50
2018-12-13T18:30:16.816Z,12.47
2018-12-13T18:32:45.166Z,12.00
2018-12-13T18:35:13.496Z,11.55
2018-12-13T18:37:41.831Z,11.40
2018-12-13T18:40:11.613Z,12.80
2018-12-13T18:42:40.415Z,11.73
2018-12-13T18:45:08.854Z,12.23
2018-12-13T18:47:37.242Z,12.75
2018-12-13T18:50:06.371Z,12.63
2018-12-13T18:52:34.767Z,13.65
2018-12-13T18:55:03.253Z,13.15
2018-12-13T18:57:31.636Z,13.28
2018-12-13T18:59:59.979Z,11.48
2018-12-13T19:02:28.285Z,13.60
2018-12-13T19:04:56.791Z,13.65
2018-12-13T19:07:25.083Z,13.32
2018-12-13T19:09:53.481Z,12.82
2018-12-13T19:12:21.930Z,14.07
2018-12-13T19:14:50.269Z,13.98
2018-12-13T19:17:18.746Z,13.93
2018-12-13T19:19:47.111Z,14.95
2018-12-13T19:22:15.411Z,12.88
2018-12-13T19:24:43.792Z,12.78
2018-12-13T19:27:12.526Z,17.12
2018-12-13T19:29:40.868Z,13.72
2018-12-13T19:32:09.239Z,12.98
2018-12-13T19:34:37.641Z,12.85
2018-12-13T19:37:05.996Z,13.75
2018-12-13T19:39:34.296Z,12.68
2018-12-13T19:42:02.682Z,13.00
2018-12-13T19:44:31.002Z,15.48
2018-12-13T19:46:59.315Z,12.58
2018-12-13T19:49:27.997Z,12.95
2018-12-13T19:51:56.289Z,12.88
2018-12-13T19:54:24.644Z,13.08
2018-12-13T19:56:52.999Z,13.40
2018-12-13T19:59:21.347Z,13.50
2018-12-13T20:01:49.710Z,13.68
2018-12-13T20:04:18.088Z,12.73
2018-12-13T20:06:46.435Z,12.78
2018-12-13T20:09:14.835Z,13.40
2018-12-13T20:11:43.286Z,14.65
2018-12-13T20:14:11.802Z,12.53
2018-12-13T20:16:40.154Z,12.65
2018-12-13T20:19:08.504Z,12.68
2018-12-13T20:21:36.923Z,12.00
2018-12-13T20:24:05.306Z,13.08
2018-12-13T20:26:33.677Z,12.65
2018-12-13T20:29:02.038Z,12.28
2018-12-13T20:31:30.376Z,11.78
2018-12-13T20:33:59.023Z,12.40
2018-12-13T20:36:27.381Z,11.83
2018-12-13T20:38:55.748Z,12.18
2018-12-13T20:41:24.144Z,11.73
2018-12-13T20:43:52.469Z,13.58
2018-12-13T20:46:20.808Z,12.35
2018-12-13T20:48:49.223Z,12.25
2018-12-13T20:51:17.559Z,11.60
2018-12-13T20:53:45.853Z,11.97
2018-12-13T20:56:14.288Z,11.40
2018-12-13T20:58:42.651Z,11.05
2018-12-13T21:01:11.087Z,12.28
2018-12-13T21:03:39.399Z,11.80
2018-12-13T21:06:07.707Z,12.05
2018-12-13T21:08:36.026Z,12.60
2018-12-13T21:11:07.424Z,11.90
2018-12-13T21:13:34.781Z,12.60
2018-12-13T21:16:03.150Z,10.98
2018-12-13T21:18:31.664Z,11.40
2018-12-13T21:21:00.005Z,11.55
2018-12-13T21:23:28.325Z,12.60
2018-12-13T21:25:56.874Z,11.70
2018-12-13T21:28:25.186Z,11.05
2018-12-13T21:30:53.505Z,11.28
2018-12-13T21:33:21.852Z,12.25
2018-12-13T21:35:50.211Z,11.35
2018-12-13T21:38:18.510Z,11.90
2018-12-13T21:40:46.937Z,11.30
2018-12-13T21:43:15.259Z,11.78
2018-12-13T21:45:43.677Z,11.10
2018-12-13T21:48:12.055Z,10.65
2018-12-13T21:50:40.355Z,11.35
2018-12-13T21:53:08.732Z,12.20
2018-12-13T21:55:37.128Z,11.20
2018-12-13T21:58:05.481Z,11.70
2018-12-13T22:00:33.835Z,12.78
2018-12-13T22:03:02.719Z,11.18
2018-12-13T22:05:31.064Z,12.58
2018-12-13T22:07:59.389Z,11.63
2018-12-13T22:10:27.740Z,10.88
2018-12-13T22:12:56.106Z,11.15
2018-12-13T22:15:24.393Z,11.03
2018-12-13T22:17:52.780Z,11.53
2018-12-13T22:20:21.146Z,11.33
2018-12-13T22:22:49.509Z,10.93
2018-12-13T22:25:18.086Z,10.40
2018-12-13T22:27:46.415Z,10.58
2018-12-13T22:30:14.749Z,10.85
2018-12-13T22:32:43.083Z,11.22
2018-12-13T22:35:11.430Z,10.60
2018-12-13T22:37:39.919Z,10.45
2018-12-13T22:40:08.357Z,9.68
2018-12-13T22:42:36.840Z,10.38
2018-12-13T22:45:06.233Z,10.10
2018-12-13T22:47:34.886Z,9.75
2018-12-13T22:50:03.234Z,10.50
2018-12-13T22:52:31.576Z,10.18
2018-12-13T22:54:59.941Z,10.58
2018-12-13T22:57:28.300Z,10.50
2018-12-13T22:59:56.639Z,10.80
2018-12-13T23:02:25.074Z,10.93
2018-12-13T23:04:53.404Z,11.00
2018-12-13T23:07:21.824Z,9.48
2018-12-13T23:09:50.354Z,9.83
2018-12-13T23:12:18.647Z,9.05
2018-12-13T23:14:47.202Z,9.70
2018-12-13T23:17:15.675Z,10.10
2018-12-13T23:19:43.992Z,9.63
2018-12-13T23:22:12.340Z,10.45
2018-12-13T23:24:40.694Z,10.68
2018-12-13T23:27:09.319Z,10.98
2018-12-13T23:29:37.645Z,10.75
2018-12-13T23:32:06.402Z,10.00
2018-12-13T23:34:34.748Z,10.85
2018-12-13T23:37:03.086Z,10.40
2018-12-13T23:39:31.456Z,10.43
2018-12-13T23:41:59.770Z,10.70
2018-12-13T23:44:28.189Z,9.30
2018-12-13T23:46:56.558Z,10.70
2018-12-13T23:49:24.903Z,9.70
2018-12-13T23:51:53.318Z,9.58
2018-12-13T23:54:21.988Z,10.68
2018-12-13T23:56:50.329Z,9.18
2018-12-13T23:59:18.727Z,9.18
